Crooked Creek Research Lab Weather observations

Data are for 10 minute period ending at time listed.
 Day   Time    Ave.   Ave.  Ave.  Vector   Max.   Stn.    Total    Solar   Ave.   Snow 
  of    of     Air    Rel.  Wind   Wind    Wind   Baro.  Precip.   Rad.    Soil   Depth
Year   Day     Temp.  Hum.  Speed  Dir.    Gust   Pres.                    Temp.       
2014   (PST)    F      %     mph   deg.    mph     mb.     in.     W/m2     F      in. 
---------------------------------------------------------------------------------------  
 234    0:00   39.0    56    2.7   203      5.6   703.8    0.00       0    999.0    -0.6
 234    0:10   39.7    55    2.5   208      4.8   703.7    0.00       0    999.0    -0.6
 234    0:20   39.3    57    1.6   158      3.4   703.7    0.00       0    999.0    -0.7
 234    0:30   39.2    57    0.3   161      1.8   703.7    0.00       0    999.0    -0.6
 234    0:40   38.8    57    0.5   222      3.7   703.8    0.00       0    999.0    -0.5
 234    0:50   39.2    56    0.4   182      1.7   703.6    0.00       0    999.0    -0.6
 234    1:00   40.0    54    0.6   143      2.2   703.7    0.00       0    999.0    -0.6
 234    1:10   40.6    52    0.8   141      1.9   703.7    0.00       0    999.0    -0.7
 234    1:20   40.2    53    1.1   201      3.1   703.7    0.00       0    999.0    -0.7
 234    1:30   39.7    54    1.0   234      4.2   703.8    0.00       0    999.0    -0.7
 234    1:40   39.1    54    3.5   232      5.9   703.8    0.00       0    999.0    -0.6
 234    1:50   39.0    54    1.5   224      4.2   703.9    0.00       0    999.0    -0.8
 234    2:00   37.5    58    0.7   237      3.4   703.8    0.00       0    999.0    -0.7
 234    2:10   37.1    60    0.4   151      3.1   703.9    0.00       0    999.0    -0.6
 234    2:20   38.2    58    1.2   146      3.1   703.8    0.00       0    999.0    -0.7
 234    2:30   37.7    59    0.9   226      3.7   703.7    0.00       0    999.0    -0.7
 234    2:40   36.9    61    0.5   222      2.3   703.8    0.00       0    999.0    -0.6
 234    2:50   37.7    59    0.7   201      1.9   703.8    0.00       0    999.0    -0.6
 234    3:00   37.8    60    0.8   168      2.9   703.8    0.00       0    999.0    -0.7
 234    3:10   37.7    60    0.9   152      2.6   703.6    0.00       0    999.0    -0.7
 234    3:20   37.5    61    0.1   228      1.2   703.8    0.00       0    999.0    -0.6
 234    3:30   36.7    63    0.1   186      0.6   703.7    0.00       0    999.0    -0.7
 234    3:40   36.1    64    0.4   221      2.9   703.7    0.00       0    999.0    -0.6
 234    3:50   36.8    63    1.4   174      3.3   703.5    0.00       0    999.0    -0.7
 234    4:00   36.4    63    0.4   243      2.4   703.6    0.00       0    999.0    -0.7
 234    4:10   36.2    63    0.7   243      2.6   703.6    0.00       0    999.0    -0.6
 234    4:20   36.0    64    0.9   215      2.8   703.7    0.00       0    999.0    -0.7
 234    4:30   35.6    65    0.6   208      2.0   703.8    0.00       0    999.0    -0.7
 234    4:40   35.4    66    0.2   198      1.4   703.8    0.00       0    999.0    -0.6
 234    4:50   36.1    66    0.5   149      2.4   704.0    0.00       0    999.0    -0.7
 234    5:00   36.5    66    0.7   147      2.6   704.0    0.00       1    999.0    -0.6
 234    5:10   36.5    66    0.4   174      2.6   704.2    0.00       4    999.0    -0.7
 234    5:20   35.9    68    0.2   233      2.3   704.2    0.00       8    999.0    -0.6
 234    5:30   35.9    68    0.4   233      3.1   704.3    0.00      12    999.0    -0.6
 234    5:40   35.5    70    0.0     0      0.0   704.2    0.00      15    999.0    -0.6
 234    5:50   35.4    70    0.0     0      0.0   704.5    0.00      17    999.0    -0.6
 234    6:00   36.4    70    0.4   207      3.5   704.4    0.00      19    999.0    -0.6
 234    6:10   37.6    67    0.9   182      3.4   704.4    0.00      21    999.0    -0.6
 234    6:20   39.3    65    1.5   143      3.1   704.4    0.00      23    999.0    -0.6
 234    6:30   40.6    62    1.7   134      2.6   704.6    0.00      25    999.0    -0.6
 234    6:40   42.5    59    1.7   133      3.9   704.5    0.00     164    999.0    -0.6
 234    6:50   47.0    50    0.8   124      3.0   704.6    0.00     304    999.0    -0.7
 234    7:00   49.7    44    2.2   238      7.0   704.7    0.00     338    999.0    -0.7
 234    7:10   50.1    41    3.0   230      6.1   704.8    0.00     372    999.0    -0.7
 234    7:20   50.8    39    2.7   233      5.5   704.8    0.00     405    999.0    -0.7
 234    7:30   51.9    37    2.3   212      5.8   705.1    0.00     438    999.0    -0.7
 234    7:40   52.0    37    2.8   220      6.8   705.0    0.00     470    999.0    -0.7
 234    7:50   52.8    36    2.3   231      4.3   705.0    0.00     501    999.0    -0.7
 234    8:00   54.6    34    1.2   184      5.8   705.1    0.00     531    999.0    -0.7
 234    8:10   55.3    33    2.1   147      5.0   705.1    0.00     561    999.0    -0.8
 234    8:20   55.0    34    4.2   118      8.8   705.2    0.00     590    999.0    -0.7
 234    8:30   54.3    35    5.2   122     10.3   705.3    0.00     616    999.0    -0.6
 234    8:40   54.5    35    4.2   140      9.2   705.5    0.00     643    999.0    -0.7
 234    8:50   54.7    34    4.4   134      9.9   705.5    0.00     669    999.0    -0.6
 234    9:00   54.8    34    4.5   126      8.1   705.5    0.00     695    999.0    -0.6
 234    9:10   55.5    33    3.9   135      9.3   705.7    0.00     719    999.0    -0.6
 234    9:20   55.7    33    3.8   153     10.7   705.7    0.00     741    999.0    -0.6
 234    9:30   55.5    33    4.9   130      9.0   705.6    0.00     762    999.0    -0.5
 234    9:40   56.6    31    3.3   110      8.9   705.5    0.00     783    999.0    -0.6
 234    9:50   56.1    31    3.8   149      9.1   705.5    0.00     800    999.0    -0.6
 234   10:00   55.8    31    5.0    96      9.3   705.7    0.00     817    999.0    -0.6
 234   10:10   56.6    31    3.7    98      8.7   705.5    0.00     833    999.0    -0.5
 234   10:20   57.2    30    3.3   132      8.9   705.5    0.00     846    999.0    -0.6
 234   10:30   57.8    30    3.6   107     11.9   705.5    0.00     859    999.0    -0.5
 234   10:40   57.7    30    5.1   136     13.8   705.5    0.00     868    999.0    -0.6
 234   10:50   57.1    31    5.5   128     14.5   705.6    0.00     877    999.0    -0.5
 234   11:00   57.6    32    4.0   186      9.9   705.5    0.00     885    999.0    -0.5
 234   11:10   57.1    36    6.2   250     12.4   705.5    0.00     889    999.0    -0.4
 234   11:20   56.8    36    6.7   233     15.1   705.5    0.00     895    999.0    -0.5
 234   11:30   57.1    35    4.4   227     12.3   705.5    0.00     898    999.0    -0.4
 234   11:40   57.6    34    5.0   267     12.1   705.5    0.00     900    999.0    -0.4
 234   11:50   57.7    34    5.2   238     10.6   705.4    0.00     899    999.0    -0.5
 234   12:00   58.0    33    6.3   240     15.6   705.4    0.00     901    999.0    -0.5
 234   12:10   58.7    32    5.8   230     11.2   705.5    0.00     898    999.0    -0.5
 234   12:20   58.5    31    3.9   260     13.0   705.4    0.00     896    999.0    -0.5
 234   12:30   58.9    31    7.1   232     13.3   705.4    0.00     888    999.0    -0.5
 234   12:40   59.0    31    6.1   263     14.0   705.5    0.00     882    999.0    -0.5
 234   12:50   59.8    30    5.4   239     12.7   705.4    0.00     874    999.0    -0.4
 234   13:00   60.4    30    5.4   240     10.7   705.3    0.00     867    999.0    -0.6
 234   13:10   60.2    29    3.8   242      8.8   705.3    0.00     851    999.0    -0.5
 234   13:20   60.2    28    5.8   231     14.5   705.2    0.00     836    999.0    -0.6
 234   13:30   60.4    26    6.7   235     15.2   705.2    0.00     826    999.0    -0.5
 234   13:40   60.6    26    6.8   242     13.2   705.3    0.00     810    999.0    -0.6
 234   13:50   60.6    25    8.4   240     14.9   705.2    0.00     793    999.0    -0.5
 234   14:00   60.8    25    5.9   232     15.0   705.0    0.00     765    999.0    -0.5
 234   14:10   61.3    25    7.3   237     14.8   705.0    0.00     745    999.0    -0.6
 234   14:20   61.1    25    6.3   247     14.8   705.0    0.00     722    999.0    -0.5
 234   14:30   60.8    24    7.5   235     15.1   705.0    0.00     698    999.0    -0.6
 234   14:40   61.2    23    5.6   245     12.6   705.0    0.00     675    999.0    -0.5
 234   14:50   61.0    22    6.8   237     12.7   704.9    0.00     648    999.0    -0.6
 234   15:00   60.8    22    6.6   231     14.1   704.8    0.00     620    999.0    -0.6
 234   15:10   61.2    24    6.3   238     12.8   704.7    0.00     590    999.0    -0.6
 234   15:20   61.0    24    7.3   234     13.7   704.8    0.00     562    999.0    -0.6
 234   15:30   61.0    25    7.8   239     15.4   704.8    0.00     531    999.0    -0.6
 234   15:40   60.8    25    7.3   240     14.2   704.9    0.00     497    999.0    -0.5
 234   15:50   61.1    25    6.3   272     12.4   704.9    0.00     469    999.0    -0.5
 234   16:00   61.6    25    6.3   239     13.1   704.9    0.00     435    999.0    -0.6
 234   16:10   61.1    25    6.0   244     11.0   704.9    0.00     402    999.0    -0.7
 234   16:20   61.7    25    4.5   241     10.5   705.0    0.00     369    999.0    -0.7
 234   16:30   61.4    26    4.6   258     10.4   704.9    0.00     336    999.0    -0.6
 234   16:40   61.5    26    5.9   242     11.5   705.0    0.00     303    999.0    -0.7
 234   16:50   60.9    28    4.1   208      8.6   705.0    0.00     274    999.0    -0.6
 234   17:00   59.7    29    6.0   143     12.3   705.0    0.00     236    999.0    -0.7
 234   17:10   59.5    30    4.5   176      9.6   705.2    0.00     211    999.0    -0.6
 234   17:20   58.6    31    4.2   157     12.1   704.9    0.00     123    999.0    -0.6
 234   17:30   56.8    33    5.3   156      9.6   704.9    0.00      27    999.0    -0.6
 234   17:40   55.9    35    4.0   144      9.7   704.9    0.00      24    999.0    -0.6
 234   17:50   55.4    36    3.2   144      7.3   704.9    0.00      17    999.0    -0.6
 234   18:00   55.0    37    1.4   171      4.5   704.9    0.00      14    999.0    -0.6
 234   18:10   54.5    38    1.8   185      5.7   704.9    0.00       9    999.0    -0.6
 234   18:20   53.8    40    1.9   228      6.6   704.9    0.00       6    999.0    -0.6
 234   18:30   53.0    42    3.1   213      6.4   705.0    0.00       3    999.0    -0.6
 234   18:40   52.7    42    2.3   179      4.5   704.8    0.00       1    999.0    -0.6
 234   18:50   52.6    44    2.6   199      4.7   704.8    0.00       0    999.0    -0.6
 234   19:00   52.1    45    1.5   191      3.8   705.0    0.00       0    999.0    -0.6
 234   19:10   51.6    46    1.3   175      3.8   704.8    0.00       0    999.0    -0.6
 234   19:20   50.6    49    1.3   167      3.5   705.0    0.00       0    999.0    -0.7
 234   19:30   50.1    50    0.8   212      3.5   705.0    0.00       0    999.0    -0.5
 234   19:40   50.0    50    1.7   183      5.8   705.2    0.00       0    999.0    -0.5
 234   19:50   50.6    49    1.2   172      3.5   705.1    0.00       0    999.0    -0.5
 234   20:00   50.8    49    1.9   147      4.9   705.2    0.00       0    999.0    -0.6
 234   20:10   51.0    49    2.2   160      4.8   705.2    0.00       0    999.0    -0.5
 234   20:20   50.3    50    0.5   180      2.3   705.2    0.00       0    999.0    -0.6
 234   20:30   49.7    52    1.3   165      5.4   705.2    0.00       0    999.0    -0.6
 234   20:40   49.7    52    2.6   174      6.1   705.1    0.00       0    999.0    -0.6
 234   20:50   49.2    52    1.8   199      5.1   705.1    0.00       0    999.0    -0.6
 234   21:00   48.8    53    0.6   180      4.4   705.1    0.00       0    999.0    -0.6
 234   21:10   49.4    52    2.4   218      5.9   705.0    0.00       0    999.0    -0.5
 234   21:20   50.1    50    3.3   167      7.0   705.1    0.00       0    999.0    -0.5
 234   21:30   50.0    51    1.3   203      3.8   705.1    0.00       0    999.0    -0.6
 234   21:40   48.9    53    0.7   150      3.0   705.1    0.00       0    999.0    -0.6
 234   21:50   48.5    54    1.7   173      3.9   705.1    0.00       0    999.0    -0.6
 234   22:00   47.6    56    2.2   169      4.0   705.1    0.00       0    999.0    -0.7
 234   22:10   47.6    56    1.2   188      3.0   705.1    0.00       0    999.0    -0.6
 234   22:20   46.8    58    1.4   170      5.3   705.1    0.00       0    999.0    -0.7
 234   22:30   47.1    57    2.7   156      4.7   705.2    0.00       0    999.0    -0.6
 234   22:40   46.0    59    1.3   194      4.6   705.2    0.00       0    999.0    -0.7
 234   22:50   44.9    61    1.2   205      4.7   705.2    0.00       0    999.0    -0.7
 234   23:00   44.7    62    2.3   192      4.4   705.1    0.00       0    999.0    -0.6
 234   23:10   44.7    62    1.8   169      4.1   705.0    0.00       0    999.0    -0.7
 234   23:20   43.6    63    1.8   236      5.1   705.0    0.00       0    999.0    -0.7
 234   23:30   42.6    65    1.9   227      4.1   705.1    0.00       0    999.0    -0.7
 234   23:40   43.2    64    2.3   224      4.4   705.1    0.00       0    999.0    -0.6
 234   23:50   43.6    64    1.2   158      3.6   705.0    0.00       0    999.0    -0.6

Return to Crooked Creek Research Lab graphs page.


Western Regional Climate Center,wrcc@dri.edu